sensor_id;sensor_type;location;lat;lon;timestamp;P1;durP1;ratioP1;P2;durP2;ratioP2
19747;SDS011;10032;51.386;12.516;2023-02-15T00:01:05;27.37;;;16.83;;
19747;SDS011;10032;51.386;12.516;2023-02-15T00:03:31;33.87;;;16.70;;
19747;SDS011;10032;51.386;12.516;2023-02-15T00:05:57;30.97;;;16.90;;
19747;SDS011;10032;51.386;12.516;2023-02-15T00:08:22;29.67;;;16.10;;
19747;SDS011;10032;51.386;12.516;2023-02-15T00:10:51;32.20;;;15.87;;
19747;SDS011;10032;51.386;12.516;2023-02-15T00:13:16;29.10;;;16.27;;
19747;SDS011;10032;51.386;12.516;2023-02-15T00:15:42;31.77;;;16.67;;
19747;SDS011;10032;51.386;12.516;2023-02-15T00:18:07;32.00;;;15.67;;
19747;SDS011;10032;51.386;12.516;2023-02-15T00:20:32;34.17;;;17.10;;
19747;SDS011;10032;51.386;12.516;2023-02-15T00:22:58;39.70;;;16.87;;
19747;SDS011;10032;51.386;12.516;2023-02-15T00:25:24;33.83;;;16.13;;
19747;SDS011;10032;51.386;12.516;2023-02-15T00:27:50;29.03;;;16.57;;
19747;SDS011;10032;51.386;12.516;2023-02-15T00:30:15;34.57;;;17.97;;
19747;SDS011;10032;51.386;12.516;2023-02-15T00:32:41;35.70;;;17.67;;
19747;SDS011;10032;51.386;12.516;2023-02-15T00:35:06;29.73;;;14.67;;
19747;SDS011;10032;51.386;12.516;2023-02-15T00:37:32;26.50;;;15.80;;
19747;SDS011;10032;51.386;12.516;2023-02-15T00:39:57;30.23;;;18.17;;
19747;SDS011;10032;51.386;12.516;2023-02-15T00:42:23;36.27;;;18.17;;
19747;SDS011;10032;51.386;12.516;2023-02-15T00:44:49;33.97;;;17.90;;
19747;SDS011;10032;51.386;12.516;2023-02-15T00:47:14;28.60;;;16.03;;
19747;SDS011;10032;51.386;12.516;2023-02-15T00:49:39;26.17;;;15.03;;
19747;SDS011;10032;51.386;12.516;2023-02-15T00:52:05;27.00;;;14.43;;
19747;SDS011;10032;51.386;12.516;2023-02-15T00:54:30;33.90;;;17.43;;
19747;SDS011;10032;51.386;12.516;2023-02-15T00:56:56;31.90;;;16.60;;
19747;SDS011;10032;51.386;12.516;2023-02-15T00:59:21;31.70;;;16.37;;
19747;SDS011;10032;51.386;12.516;2023-02-15T01:01:46;28.23;;;15.37;;
19747;SDS011;10032;51.386;12.516;2023-02-15T01:04:12;31.77;;;17.07;;
19747;SDS011;10032;51.386;12.516;2023-02-15T01:06:37;31.30;;;17.00;;
19747;SDS011;10032;51.386;12.516;2023-02-15T01:09:03;36.17;;;17.47;;
19747;SDS011;10032;51.386;12.516;2023-02-15T01:11:28;34.40;;;18.93;;
19747;SDS011;10032;51.386;12.516;2023-02-15T01:13:57;34.40;;;17.83;;
19747;SDS011;10032;51.386;12.516;2023-02-15T01:16:24;30.60;;;17.63;;
19747;SDS011;10032;51.386;12.516;2023-02-15T01:18:51;33.00;;;16.07;;
19747;SDS011;10032;51.386;12.516;2023-02-15T01:21:17;32.83;;;17.63;;
19747;SDS011;10032;51.386;12.516;2023-02-15T01:23:45;31.47;;;16.53;;
19747;SDS011;10032;51.386;12.516;2023-02-15T01:26:11;29.60;;;16.17;;
19747;SDS011;10032;51.386;12.516;2023-02-15T01:28:37;34.27;;;17.83;;
19747;SDS011;10032;51.386;12.516;2023-02-15T01:31:07;30.13;;;18.27;;
19747;SDS011;10032;51.386;12.516;2023-02-15T01:33:34;34.97;;;17.60;;
19747;SDS011;10032;51.386;12.516;2023-02-15T01:36:00;31.63;;;16.90;;
19747;SDS011;10032;51.386;12.516;2023-02-15T01:38:25;35.63;;;17.80;;
19747;SDS011;10032;51.386;12.516;2023-02-15T01:40:51;32.77;;;16.70;;
19747;SDS011;10032;51.386;12.516;2023-02-15T01:43:17;33.30;;;16.97;;
19747;SDS011;10032;51.386;12.516;2023-02-15T01:45:43;29.60;;;15.50;;
19747;SDS011;10032;51.386;12.516;2023-02-15T01:50:53;32.30;;;16.10;;
19747;SDS011;10032;51.386;12.516;2023-02-15T01:53:23;31.10;;;16.13;;
19747;SDS011;10032;51.386;12.516;2023-02-15T01:55:53;30.57;;;17.03;;
19747;SDS011;10032;51.386;12.516;2023-02-15T01:58:22;32.50;;;17.20;;
19747;SDS011;10032;51.386;12.516;2023-02-15T02:00:52;32.73;;;17.27;;
19747;SDS011;10032;51.386;12.516;2023-02-15T02:03:20;33.40;;;17.33;;
19747;SDS011;10032;51.386;12.516;2023-02-15T02:06:03;27.53;;;16.13;;
19747;SDS011;10032;51.386;12.516;2023-02-15T02:08:29;30.70;;;16.57;;
19747;SDS011;10032;51.386;12.516;2023-02-15T02:10:55;28.10;;;14.73;;
19747;SDS011;10032;51.386;12.516;2023-02-15T02:13:20;31.03;;;16.13;;
19747;SDS011;10032;51.386;12.516;2023-02-15T02:15:54;29.53;;;16.70;;
19747;SDS011;10032;51.386;12.516;2023-02-15T02:42:49;29.30;;;15.87;;
19747;SDS011;10032;51.386;12.516;2023-02-15T02:45:35;29.90;;;15.67;;
19747;SDS011;10032;51.386;12.516;2023-02-15T02:48:33;31.93;;;16.80;;
19747;SDS011;10032;51.386;12.516;2023-02-15T02:50:59;31.57;;;17.07;;
19747;SDS011;10032;51.386;12.516;2023-02-15T02:53:25;32.07;;;17.03;;
19747;SDS011;10032;51.386;12.516;2023-02-15T02:55:58;27.70;;;15.77;;
19747;SDS011;10032;51.386;12.516;2023-02-15T03:01:33;32.03;;;17.87;;
19747;SDS011;10032;51.386;12.516;2023-02-15T03:04:05;33.83;;;17.33;;
19747;SDS011;10032;51.386;12.516;2023-02-15T03:06:49;26.17;;;14.97;;
19747;SDS011;10032;51.386;12.516;2023-02-15T03:11:48;31.93;;;16.93;;
19747;SDS011;10032;51.386;12.516;2023-02-15T03:14:14;30.40;;;16.27;;
19747;SDS011;10032;51.386;12.516;2023-02-15T03:16:43;29.73;;;14.80;;
19747;SDS011;10032;51.386;12.516;2023-02-15T03:19:13;27.47;;;15.03;;
19747;SDS011;10032;51.386;12.516;2023-02-15T03:21:53;27.53;;;14.97;;
19747;SDS011;10032;51.386;12.516;2023-02-15T03:24:38;23.93;;;14.10;;
19747;SDS011;10032;51.386;12.516;2023-02-15T03:27:13;21.70;;;12.63;;
19747;SDS011;10032;51.386;12.516;2023-02-15T03:29:44;20.37;;;12.80;;
19747;SDS011;10032;51.386;12.516;2023-02-15T03:32:13;18.37;;;12.07;;
19747;SDS011;10032;51.386;12.516;2023-02-15T03:34:40;19.07;;;11.17;;
19747;SDS011;10032;51.386;12.516;2023-02-15T03:40:06;25.30;;;13.43;;
19747;SDS011;10032;51.386;12.516;2023-02-15T03:43:00;20.97;;;12.20;;
19747;SDS011;10032;51.386;12.516;2023-02-15T03:45:49;18.50;;;11.93;;
19747;SDS011;10032;51.386;12.516;2023-02-15T03:48:24;22.87;;;13.03;;
19747;SDS011;10032;51.386;12.516;2023-02-15T03:50:55;19.33;;;12.03;;
19747;SDS011;10032;51.386;12.516;2023-02-15T03:53:43;16.90;;;11.43;;
19747;SDS011;10032;51.386;12.516;2023-02-15T03:56:12;23.97;;;14.13;;
19747;SDS011;10032;51.386;12.516;2023-02-15T03:58:37;24.13;;;13.67;;
19747;SDS011;10032;51.386;12.516;2023-02-15T04:01:34;20.47;;;13.33;;
19747;SDS011;10032;51.386;12.516;2023-02-15T04:04:35;25.03;;;13.83;;
19747;SDS011;10032;51.386;12.516;2023-02-15T04:07:04;23.77;;;16.10;;
19747;SDS011;10032;51.386;12.516;2023-02-15T04:09:32;26.00;;;16.27;;
19747;SDS011;10032;51.386;12.516;2023-02-15T04:12:16;22.37;;;14.40;;
19747;SDS011;10032;51.386;12.516;2023-02-15T04:14:41;26.27;;;15.83;;
19747;SDS011;10032;51.386;12.516;2023-02-15T04:17:25;26.40;;;15.80;;
19747;SDS011;10032;51.386;12.516;2023-02-15T04:19:51;24.13;;;15.60;;
19747;SDS011;10032;51.386;12.516;2023-02-15T04:22:35;22.30;;;14.03;;
19747;SDS011;10032;51.386;12.516;2023-02-15T04:25:19;24.20;;;14.83;;
19747;SDS011;10032;51.386;12.516;2023-02-15T04:27:47;24.27;;;14.90;;
19747;SDS011;10032;51.386;12.516;2023-02-15T04:30:14;24.53;;;14.20;;
19747;SDS011;10032;51.386;12.516;2023-02-15T04:32:41;24.67;;;14.20;;
19747;SDS011;10032;51.386;12.516;2023-02-15T04:35:07;23.50;;;14.07;;
19747;SDS011;10032;51.386;12.516;2023-02-15T04:37:34;24.20;;;15.47;;
19747;SDS011;10032;51.386;12.516;2023-02-15T04:40:02;21.23;;;14.10;;
19747;SDS011;10032;51.386;12.516;2023-02-15T04:42:28;23.60;;;13.13;;
19747;SDS011;10032;51.386;12.516;2023-02-15T04:44:54;26.53;;;15.30;;
19747;SDS011;10032;51.386;12.516;2023-02-15T04:47:19;22.67;;;13.17;;
19747;SDS011;10032;51.386;12.516;2023-02-15T04:49:45;23.13;;;13.23;;
19747;SDS011;10032;51.386;12.516;2023-02-15T04:52:10;24.40;;;13.80;;
19747;SDS011;10032;51.386;12.516;2023-02-15T04:54:36;27.43;;;14.37;;
19747;SDS011;10032;51.386;12.516;2023-02-15T04:57:02;26.67;;;14.33;;
19747;SDS011;10032;51.386;12.516;2023-02-15T04:59:28;25.37;;;15.53;;
19747;SDS011;10032;51.386;12.516;2023-02-15T05:01:54;23.40;;;14.07;;
19747;SDS011;10032;51.386;12.516;2023-02-15T05:04:19;27.47;;;14.00;;
19747;SDS011;10032;51.386;12.516;2023-02-15T05:06:44;23.23;;;12.70;;
19747;SDS011;10032;51.386;12.516;2023-02-15T05:09:13;21.70;;;13.37;;
19747;SDS011;10032;51.386;12.516;2023-02-15T05:11:39;23.63;;;14.03;;
19747;SDS011;10032;51.386;12.516;2023-02-15T05:14:04;18.80;;;12.93;;
19747;SDS011;10032;51.386;12.516;2023-02-15T05:16:30;24.37;;;14.43;;
19747;SDS011;10032;51.386;12.516;2023-02-15T05:18:55;24.37;;;14.53;;
19747;SDS011;10032;51.386;12.516;2023-02-15T05:21:21;21.07;;;12.80;;
19747;SDS011;10032;51.386;12.516;2023-02-15T05:23:46;25.37;;;13.73;;
19747;SDS011;10032;51.386;12.516;2023-02-15T05:26:12;23.03;;;13.43;;
19747;SDS011;10032;51.386;12.516;2023-02-15T05:29:03;21.13;;;13.40;;
19747;SDS011;10032;51.386;12.516;2023-02-15T05:31:30;22.53;;;13.70;;
19747;SDS011;10032;51.386;12.516;2023-02-15T05:33:56;23.77;;;13.33;;
19747;SDS011;10032;51.386;12.516;2023-02-15T05:36:22;25.00;;;13.53;;
19747;SDS011;10032;51.386;12.516;2023-02-15T05:38:47;20.97;;;12.73;;
19747;SDS011;10032;51.386;12.516;2023-02-15T05:41:13;21.83;;;12.10;;
19747;SDS011;10032;51.386;12.516;2023-02-15T05:43:38;23.80;;;13.90;;
19747;SDS011;10032;51.386;12.516;2023-02-15T05:46:04;25.33;;;13.20;;
19747;SDS011;10032;51.386;12.516;2023-02-15T05:48:30;21.83;;;13.50;;
19747;SDS011;10032;51.386;12.516;2023-02-15T05:50:59;22.07;;;13.57;;
19747;SDS011;10032;51.386;12.516;2023-02-15T05:53:30;22.33;;;13.70;;
19747;SDS011;10032;51.386;12.516;2023-02-15T05:55:57;20.20;;;12.23;;
19747;SDS011;10032;51.386;12.516;2023-02-15T05:58:27;23.93;;;13.53;;
19747;SDS011;10032;51.386;12.516;2023-02-15T06:00:55;20.40;;;13.23;;
19747;SDS011;10032;51.386;12.516;2023-02-15T06:03:21;18.27;;;12.57;;
19747;SDS011;10032;51.386;12.516;2023-02-15T06:05:47;20.87;;;11.73;;
19747;SDS011;10032;51.386;12.516;2023-02-15T06:08:12;15.90;;;11.30;;
19747;SDS011;10032;51.386;12.516;2023-02-15T06:10:38;20.00;;;11.90;;
19747;SDS011;10032;51.386;12.516;2023-02-15T06:13:05;20.27;;;12.67;;
19747;SDS011;10032;51.386;12.516;2023-02-15T06:15:30;22.07;;;12.00;;
19747;SDS011;10032;51.386;12.516;2023-02-15T06:17:56;19.77;;;12.20;;
19747;SDS011;10032;51.386;12.516;2023-02-15T06:20:21;22.07;;;12.30;;
19747;SDS011;10032;51.386;12.516;2023-02-15T06:22:47;23.53;;;14.10;;
19747;SDS011;10032;51.386;12.516;2023-02-15T06:25:12;17.70;;;10.43;;
19747;SDS011;10032;51.386;12.516;2023-02-15T06:27:40;19.37;;;11.37;;
19747;SDS011;10032;51.386;12.516;2023-02-15T06:30:07;16.57;;;10.90;;
19747;SDS011;10032;51.386;12.516;2023-02-15T06:32:33;19.37;;;11.60;;
19747;SDS011;10032;51.386;12.516;2023-02-15T06:34:59;23.17;;;12.40;;
19747;SDS011;10032;51.386;12.516;2023-02-15T06:37:24;17.13;;;11.20;;
19747;SDS011;10032;51.386;12.516;2023-02-15T06:39:50;17.33;;;11.60;;
19747;SDS011;10032;51.386;12.516;2023-02-15T06:42:15;20.73;;;12.67;;
19747;SDS011;10032;51.386;12.516;2023-02-15T06:44:42;21.73;;;12.93;;
19747;SDS011;10032;51.386;12.516;2023-02-15T06:47:08;17.03;;;11.80;;
19747;SDS011;10032;51.386;12.516;2023-02-15T06:49:33;15.63;;;11.27;;
19747;SDS011;10032;51.386;12.516;2023-02-15T06:51:59;18.90;;;11.33;;
19747;SDS011;10032;51.386;12.516;2023-02-15T06:54:24;17.87;;;9.87;;
19747;SDS011;10032;51.386;12.516;2023-02-15T06:56:49;17.10;;;11.27;;
19747;SDS011;10032;51.386;12.516;2023-02-15T06:59:15;17.37;;;10.53;;
19747;SDS011;10032;51.386;12.516;2023-02-15T07:01:40;18.57;;;10.10;;
19747;SDS011;10032;51.386;12.516;2023-02-15T07:04:06;18.37;;;11.17;;
19747;SDS011;10032;51.386;12.516;2023-02-15T07:06:32;22.60;;;11.47;;
19747;SDS011;10032;51.386;12.516;2023-02-15T07:08:58;20.93;;;12.33;;
19747;SDS011;10032;51.386;12.516;2023-02-15T07:11:24;17.60;;;10.40;;
19747;SDS011;10032;51.386;12.516;2023-02-15T07:14:08;20.93;;;11.70;;
19747;SDS011;10032;51.386;12.516;2023-02-15T07:16:33;18.37;;;11.93;;
19747;SDS011;10032;51.386;12.516;2023-02-15T07:18:59;17.27;;;11.40;;
19747;SDS011;10032;51.386;12.516;2023-02-15T07:21:24;20.13;;;12.43;;
19747;SDS011;10032;51.386;12.516;2023-02-15T07:23:49;17.30;;;10.60;;
19747;SDS011;10032;51.386;12.516;2023-02-15T07:26:15;14.57;;;9.83;;
19747;SDS011;10032;51.386;12.516;2023-02-15T07:28:40;17.13;;;11.97;;
19747;SDS011;10032;51.386;12.516;2023-02-15T07:31:05;16.40;;;10.67;;
19747;SDS011;10032;51.386;12.516;2023-02-15T07:33:31;17.13;;;11.00;;
19747;SDS011;10032;51.386;12.516;2023-02-15T07:35:58;13.50;;;9.20;;
19747;SDS011;10032;51.386;12.516;2023-02-15T07:38:27;17.00;;;10.50;;
19747;SDS011;10032;51.386;12.516;2023-02-15T07:40:59;16.53;;;9.83;;
19747;SDS011;10032;51.386;12.516;2023-02-15T07:43:29;16.03;;;10.17;;
19747;SDS011;10032;51.386;12.516;2023-02-15T07:45:58;16.27;;;8.87;;
19747;SDS011;10032;51.386;12.516;2023-02-15T07:48:25;16.87;;;10.50;;
19747;SDS011;10032;51.386;12.516;2023-02-15T07:50:51;16.97;;;10.77;;
19747;SDS011;10032;51.386;12.516;2023-02-15T07:53:16;12.43;;;9.00;;
19747;SDS011;10032;51.386;12.516;2023-02-15T07:55:42;15.67;;;9.53;;
19747;SDS011;10032;51.386;12.516;2023-02-15T07:58:07;13.57;;;9.67;;
19747;SDS011;10032;51.386;12.516;2023-02-15T08:00:32;12.93;;;8.63;;
19747;SDS011;10032;51.386;12.516;2023-02-15T08:03:18;12.60;;;7.97;;
19747;SDS011;10032;51.386;12.516;2023-02-15T08:05:44;13.13;;;9.07;;
19747;SDS011;10032;51.386;12.516;2023-02-15T08:08:10;12.70;;;9.20;;
19747;SDS011;10032;51.386;12.516;2023-02-15T08:11:36;13.70;;;7.93;;
19747;SDS011;10032;51.386;12.516;2023-02-15T08:13:54;15.73;;;10.00;;
19747;SDS011;10032;51.386;12.516;2023-02-15T08:19:04;12.70;;;7.90;;
19747;SDS011;10032;51.386;12.516;2023-02-15T08:21:56;10.63;;;7.33;;
19747;SDS011;10032;51.386;12.516;2023-02-15T08:24:25;10.70;;;8.20;;
19747;SDS011;10032;51.386;12.516;2023-02-15T08:26:52;10.97;;;7.93;;
19747;SDS011;10032;51.386;12.516;2023-02-15T08:29:19;11.07;;;8.43;;
19747;SDS011;10032;51.386;12.516;2023-02-15T08:31:50;13.37;;;8.20;;
19747;SDS011;10032;51.386;12.516;2023-02-15T08:34:18;16.87;;;9.60;;
19747;SDS011;10032;51.386;12.516;2023-02-15T08:36:44;15.40;;;7.77;;
19747;SDS011;10032;51.386;12.516;2023-02-15T08:39:13;13.00;;;7.40;;
19747;SDS011;10032;51.386;12.516;2023-02-15T08:41:41;13.87;;;8.40;;
19747;SDS011;10032;51.386;12.516;2023-02-15T08:44:07;10.40;;;6.57;;
19747;SDS011;10032;51.386;12.516;2023-02-15T08:46:36;8.83;;;6.30;;
19747;SDS011;10032;51.386;12.516;2023-02-15T08:49:06;10.13;;;6.80;;
19747;SDS011;10032;51.386;12.516;2023-02-15T08:51:33;7.07;;;5.17;;
19747;SDS011;10032;51.386;12.516;2023-02-15T08:54:02;8.13;;;5.60;;
19747;SDS011;10032;51.386;12.516;2023-02-15T08:56:31;8.03;;;5.67;;
19747;SDS011;10032;51.386;12.516;2023-02-15T08:58:59;9.63;;;6.90;;
19747;SDS011;10032;51.386;12.516;2023-02-15T09:01:26;10.27;;;5.80;;
19747;SDS011;10032;51.386;12.516;2023-02-15T09:03:59;9.33;;;5.90;;
19747;SDS011;10032;51.386;12.516;2023-02-15T09:06:27;6.90;;;5.57;;
19747;SDS011;10032;51.386;12.516;2023-02-15T09:08:53;8.17;;;5.93;;
19747;SDS011;10032;51.386;12.516;2023-02-15T09:13:51;7.33;;;4.63;;
19747;SDS011;10032;51.386;12.516;2023-02-15T09:16:22;11.47;;;6.10;;
19747;SDS011;10032;51.386;12.516;2023-02-15T09:18:49;10.13;;;5.77;;
19747;SDS011;10032;51.386;12.516;2023-02-15T09:21:16;10.00;;;5.57;;
19747;SDS011;10032;51.386;12.516;2023-02-15T09:23:44;6.10;;;4.23;;
19747;SDS011;10032;51.386;12.516;2023-02-15T09:26:11;7.10;;;5.20;;
19747;SDS011;10032;51.386;12.516;2023-02-15T09:28:39;5.47;;;4.23;;
19747;SDS011;10032;51.386;12.516;2023-02-15T09:31:15;6.80;;;4.80;;
19747;SDS011;10032;51.386;12.516;2023-02-15T09:33:43;7.50;;;4.70;;
19747;SDS011;10032;51.386;12.516;2023-02-15T09:36:14;7.00;;;5.20;;
19747;SDS011;10032;51.386;12.516;2023-02-15T09:38:53;8.00;;;4.97;;
19747;SDS011;10032;51.386;12.516;2023-02-15T09:41:37;5.50;;;4.80;;
19747;SDS011;10032;51.386;12.516;2023-02-15T09:55:24;7.30;;;4.57;;
19747;SDS011;10032;51.386;12.516;2023-02-15T10:09:46;6.10;;;3.73;;
19747;SDS011;10032;51.386;12.516;2023-02-15T10:12:30;7.60;;;4.47;;
19747;SDS011;10032;51.386;12.516;2023-02-15T10:28:17;6.83;;;4.43;;
19747;SDS011;10032;51.386;12.516;2023-02-15T10:30:48;7.50;;;4.50;;
19747;SDS011;10032;51.386;12.516;2023-02-15T10:33:30;6.70;;;4.43;;
19747;SDS011;10032;51.386;12.516;2023-02-15T10:47:28;5.47;;;4.03;;
19747;SDS011;10032;51.386;12.516;2023-02-15T11:00:44;4.17;;;3.40;;
19747;SDS011;10032;51.386;12.516;2023-02-15T11:03:19;6.57;;;4.23;;
19747;SDS011;10032;51.386;12.516;2023-02-15T11:08:37;6.50;;;4.00;;
19747;SDS011;10032;51.386;12.516;2023-02-15T11:11:09;7.00;;;4.00;;
19747;SDS011;10032;51.386;12.516;2023-02-15T11:13:41;5.23;;;3.83;;
19747;SDS011;10032;51.386;12.516;2023-02-15T11:16:16;5.60;;;3.37;;
19747;SDS011;10032;51.386;12.516;2023-02-15T11:21:20;5.83;;;3.83;;
19747;SDS011;10032;51.386;12.516;2023-02-15T11:23:49;4.00;;;3.23;;
19747;SDS011;10032;51.386;12.516;2023-02-15T11:26:33;5.83;;;4.27;;
19747;SDS011;10032;51.386;12.516;2023-02-15T11:31:45;8.73;;;4.97;;
19747;SDS011;10032;51.386;12.516;2023-02-15T11:34:18;8.13;;;4.33;;
19747;SDS011;10032;51.386;12.516;2023-02-15T11:36:52;7.33;;;4.83;;
19747;SDS011;10032;51.386;12.516;2023-02-15T11:39:23;5.23;;;3.80;;
19747;SDS011;10032;51.386;12.516;2023-02-15T11:41:54;4.33;;;3.40;;
19747;SDS011;10032;51.386;12.516;2023-02-15T11:44:32;4.93;;;3.43;;
19747;SDS011;10032;51.386;12.516;2023-02-15T11:47:02;6.70;;;4.03;;
19747;SDS011;10032;51.386;12.516;2023-02-15T11:51:58;5.60;;;4.07;;
19747;SDS011;10032;51.386;12.516;2023-02-15T11:54:28;3.70;;;3.30;;
19747;SDS011;10032;51.386;12.516;2023-02-15T11:56:58;5.23;;;3.90;;
19747;SDS011;10032;51.386;12.516;2023-02-15T11:59:31;5.17;;;3.63;;
19747;SDS011;10032;51.386;12.516;2023-02-15T12:02:01;7.03;;;4.80;;
19747;SDS011;10032;51.386;12.516;2023-02-15T12:04:31;6.77;;;4.07;;
19747;SDS011;10032;51.386;12.516;2023-02-15T12:07:03;5.90;;;4.20;;
19747;SDS011;10032;51.386;12.516;2023-02-15T12:09:55;6.13;;;4.30;;
19747;SDS011;10032;51.386;12.516;2023-02-15T12:14:55;5.43;;;3.73;;
19747;SDS011;10032;51.386;12.516;2023-02-15T12:17:32;4.63;;;3.50;;
19747;SDS011;10032;51.386;12.516;2023-02-15T12:22:46;5.07;;;3.43;;
19747;SDS011;10032;51.386;12.516;2023-02-15T12:25:22;4.73;;;3.47;;
19747;SDS011;10032;51.386;12.516;2023-02-15T12:27:58;5.53;;;3.70;;
19747;SDS011;10032;51.386;12.516;2023-02-15T12:40:35;4.30;;;3.67;;
19747;SDS011;10032;51.386;12.516;2023-02-15T12:43:00;4.13;;;3.50;;
19747;SDS011;10032;51.386;12.516;2023-02-15T12:45:33;5.00;;;3.80;;
19747;SDS011;10032;51.386;12.516;2023-02-15T12:48:17;4.47;;;3.73;;
19747;SDS011;10032;51.386;12.516;2023-02-15T12:50:44;5.83;;;3.73;;
19747;SDS011;10032;51.386;12.516;2023-02-15T12:53:18;5.10;;;3.50;;
19747;SDS011;10032;51.386;12.516;2023-02-15T12:56:06;5.37;;;3.63;;
19747;SDS011;10032;51.386;12.516;2023-02-15T12:58:33;5.90;;;3.80;;
19747;SDS011;10032;51.386;12.516;2023-02-15T13:03:33;7.50;;;3.70;;
19747;SDS011;10032;51.386;12.516;2023-02-15T13:06:00;6.13;;;4.03;;
19747;SDS011;10032;51.386;12.516;2023-02-15T13:08:33;5.67;;;3.77;;
19747;SDS011;10032;51.386;12.516;2023-02-15T13:11:04;5.20;;;3.60;;
19747;SDS011;10032;51.386;12.516;2023-02-15T13:13:50;4.53;;;3.50;;
19747;SDS011;10032;51.386;12.516;2023-02-15T13:16:20;6.67;;;4.13;;
19747;SDS011;10032;51.386;12.516;2023-02-15T13:18:56;6.03;;;3.77;;
19747;SDS011;10032;51.386;12.516;2023-02-15T13:21:24;4.67;;;3.73;;
19747;SDS011;10032;51.386;12.516;2023-02-15T13:24:06;5.70;;;3.40;;
19747;SDS011;10032;51.386;12.516;2023-02-15T13:26:42;6.43;;;3.67;;
19747;SDS011;10032;51.386;12.516;2023-02-15T13:29:17;5.47;;;3.83;;
19747;SDS011;10032;51.386;12.516;2023-02-15T13:31:49;4.57;;;3.40;;
19747;SDS011;10032;51.386;12.516;2023-02-15T13:34:20;4.90;;;3.40;;
19747;SDS011;10032;51.386;12.516;2023-02-15T13:53:56;4.10;;;3.13;;
19747;SDS011;10032;51.386;12.516;2023-02-15T14:09:58;5.93;;;3.10;;
19747;SDS011;10032;51.386;12.516;2023-02-15T14:18:15;7.20;;;4.73;;
19747;SDS011;10032;51.386;12.516;2023-02-15T14:26:06;2.93;;;2.63;;
19747;SDS011;10032;51.386;12.516;2023-02-15T14:31:30;3.43;;;2.77;;
19747;SDS011;10032;51.386;12.516;2023-02-15T14:34:03;4.70;;;2.80;;
19747;SDS011;10032;51.386;12.516;2023-02-15T14:36:29;2.83;;;2.50;;
19747;SDS011;10032;51.386;12.516;2023-02-15T14:42:10;3.83;;;2.60;;
19747;SDS011;10032;51.386;12.516;2023-02-15T14:44:52;8.13;;;2.50;;
19747;SDS011;10032;51.386;12.516;2023-02-15T14:47:41;3.67;;;2.83;;
19747;SDS011;10032;51.386;12.516;2023-02-15T14:58:56;5.17;;;3.50;;
19747;SDS011;10032;51.386;12.516;2023-02-15T15:01:29;5.97;;;2.70;;
19747;SDS011;10032;51.386;12.516;2023-02-15T15:04:07;2.80;;;2.50;;
19747;SDS011;10032;51.386;12.516;2023-02-15T15:06:39;2.47;;;2.27;;
19747;SDS011;10032;51.386;12.516;2023-02-15T15:09:22;3.87;;;2.00;;
19747;SDS011;10032;51.386;12.516;2023-02-15T15:11:52;3.50;;;2.10;;
19747;SDS011;10032;51.386;12.516;2023-02-15T15:16:59;7.60;;;4.13;;
19747;SDS011;10032;51.386;12.516;2023-02-15T15:22:19;3.80;;;3.00;;
19747;SDS011;10032;51.386;12.516;2023-02-15T15:35:32;5.43;;;2.47;;
19747;SDS011;10032;51.386;12.516;2023-02-15T15:50:13;4.93;;;3.20;;
19747;SDS011;10032;51.386;12.516;2023-02-15T15:52:42;3.23;;;2.50;;
19747;SDS011;10032;51.386;12.516;2023-02-15T15:55:18;3.53;;;3.00;;
19747;SDS011;10032;51.386;12.516;2023-02-15T15:57:47;6.67;;;5.93;;
19747;SDS011;10032;51.386;12.516;2023-02-15T16:01:03;10.70;;;8.00;;
19747;SDS011;10032;51.386;12.516;2023-02-15T16:03:25;3.97;;;3.57;;
19747;SDS011;10032;51.386;12.516;2023-02-15T16:05:52;4.97;;;3.50;;
19747;SDS011;10032;51.386;12.516;2023-02-15T16:11:16;3.83;;;3.20;;
19747;SDS011;10032;51.386;12.516;2023-02-15T16:13:47;3.53;;;2.80;;
19747;SDS011;10032;51.386;12.516;2023-02-15T16:16:13;5.47;;;3.07;;
19747;SDS011;10032;51.386;12.516;2023-02-15T16:18:44;3.70;;;3.13;;
19747;SDS011;10032;51.386;12.516;2023-02-15T16:21:21;6.27;;;3.73;;
19747;SDS011;10032;51.386;12.516;2023-02-15T16:24:37;8.33;;;3.53;;
19747;SDS011;10032;51.386;12.516;2023-02-15T16:29:16;4.83;;;3.23;;
19747;SDS011;10032;51.386;12.516;2023-02-15T16:31:45;4.33;;;3.30;;
19747;SDS011;10032;51.386;12.516;2023-02-15T16:34:25;6.90;;;3.63;;
19747;SDS011;10032;51.386;12.516;2023-02-15T16:37:11;6.97;;;3.10;;
19747;SDS011;10032;51.386;12.516;2023-02-15T16:39:40;4.50;;;3.33;;
19747;SDS011;10032;51.386;12.516;2023-02-15T16:42:07;5.80;;;3.50;;
19747;SDS011;10032;51.386;12.516;2023-02-15T16:44:33;5.50;;;3.90;;
19747;SDS011;10032;51.386;12.516;2023-02-15T16:46:59;4.90;;;3.77;;
19747;SDS011;10032;51.386;12.516;2023-02-15T16:49:26;5.57;;;3.47;;
19747;SDS011;10032;51.386;12.516;2023-02-15T16:51:57;5.20;;;4.00;;
19747;SDS011;10032;51.386;12.516;2023-02-15T16:54:23;9.10;;;3.33;;
19747;SDS011;10032;51.386;12.516;2023-02-15T16:56:50;5.67;;;3.97;;
19747;SDS011;10032;51.386;12.516;2023-02-15T17:02:17;9.80;;;4.30;;
19747;SDS011;10032;51.386;12.516;2023-02-15T17:04:59;5.60;;;3.87;;
19747;SDS011;10032;51.386;12.516;2023-02-15T17:07:31;6.67;;;4.47;;
19747;SDS011;10032;51.386;12.516;2023-02-15T17:09:58;8.03;;;5.40;;
19747;SDS011;10032;51.386;12.516;2023-02-15T17:15:33;11.47;;;5.67;;
19747;SDS011;10032;51.386;12.516;2023-02-15T17:18:02;7.03;;;5.60;;
19747;SDS011;10032;51.386;12.516;2023-02-15T17:20:30;8.10;;;5.83;;
19747;SDS011;10032;51.386;12.516;2023-02-15T17:22:57;6.50;;;4.93;;
19747;SDS011;10032;51.386;12.516;2023-02-15T17:25:26;7.97;;;5.10;;
19747;SDS011;10032;51.386;12.516;2023-02-15T17:28:01;7.70;;;4.87;;
19747;SDS011;10032;51.386;12.516;2023-02-15T17:30:28;5.67;;;4.63;;
19747;SDS011;10032;51.386;12.516;2023-02-15T17:32:59;7.83;;;5.10;;
19747;SDS011;10032;51.386;12.516;2023-02-15T17:38:03;10.20;;;6.67;;
19747;SDS011;10032;51.386;12.516;2023-02-15T17:40:43;13.20;;;8.53;;
19747;SDS011;10032;51.386;12.516;2023-02-15T17:43:08;11.53;;;7.13;;
19747;SDS011;10032;51.386;12.516;2023-02-15T17:45:37;10.70;;;6.63;;
19747;SDS011;10032;51.386;12.516;2023-02-15T17:48:09;12.47;;;6.43;;
19747;SDS011;10032;51.386;12.516;2023-02-15T17:50:45;10.53;;;7.10;;
19747;SDS011;10032;51.386;12.516;2023-02-15T17:53:10;13.43;;;8.30;;
19747;SDS011;10032;51.386;12.516;2023-02-15T17:55:37;14.77;;;8.33;;
19747;SDS011;10032;51.386;12.516;2023-02-15T17:58:07;11.53;;;8.60;;
19747;SDS011;10032;51.386;12.516;2023-02-15T18:00:36;12.23;;;7.63;;
19747;SDS011;10032;51.386;12.516;2023-02-15T18:03:28;11.47;;;8.67;;
19747;SDS011;10032;51.386;12.516;2023-02-15T18:06:22;12.43;;;8.00;;
19747;SDS011;10032;51.386;12.516;2023-02-15T18:09:08;12.30;;;8.30;;
19747;SDS011;10032;51.386;12.516;2023-02-15T18:11:54;12.07;;;7.67;;
19747;SDS011;10032;51.386;12.516;2023-02-15T18:14:20;11.50;;;7.33;;
19747;SDS011;10032;51.386;12.516;2023-02-15T18:16:45;12.37;;;8.00;;
19747;SDS011;10032;51.386;12.516;2023-02-15T18:21:39;9.40;;;6.67;;
19747;SDS011;10032;51.386;12.516;2023-02-15T18:24:05;10.40;;;6.40;;
19747;SDS011;10032;51.386;12.516;2023-02-15T18:26:33;8.73;;;6.00;;
19747;SDS011;10032;51.386;12.516;2023-02-15T18:28:59;12.77;;;7.50;;